首页
METAR-TAF:

METAR-TAF

机场 :

雅西, 罗马尼亚

纬度: 47-10N, 经度: 027-38E, 海拔: 102米

当前天气观测

该预报发布于15分钟前的16:00 UTC
风速2节,风向
温度 22°C
湿度 29%
气压 1014 hPa
能见度10公里或以上
1500米以下无云,无积雨云

METAR: LRIA 231600Z 10002KT CAVOK 22/03 Q1014

时间: 19:15 (16:15 UTC)

预报

该预报发布于2小时和15分钟前的14:00 UTC
预报有效从23日的 15点(UTC)到 23日的 24点(UTC)
风速5节,风向东转东南
能见度10公里或以上
1500米以下无云,无积雨云

TAF: LRIA 231400Z 2315/2324 12005KT CAVOK

超过4000个机场的气象观测和天气预报(METAR&TAF报告)。

可查询的气象台以黄色和红色小点在地图上表示。

将鼠标移到小点上方,可查看气象台名称。

然后点击查看天气观测和预报。

如需切换地图:点击带黑十字的绿色按钮放大地图;点击带横线的绿色按钮缩小地图;或者点击绿色箭头查看邻近地区的地图。


METAR-TAF: